Lynn, Nebraska
Current Conditions -  °F | °C
As of 11:53 AM on Thursday 27 Nov 2014 (Local Time) from KHSI Reporting Station
Clear Clear  
Wind Chill: 22°   Ceiling: Unl
Heat Index: 31°   Visibility: 10mi
Dew Point: 14°   Wind: 12mph
Humidity: 50%   Direction: 160°SSE
Pressure: 30.32"   Gusts: 21mph
Location:  40.4815°N, 97.9942°W
Report Text: KHSI 271753Z AUTO 16010G18KT 10SM CLR M01/M10 A3032 RMK AO2 SLP294 T10061100 11006 21083 58039
Loading
Personal Weather Stations






























Interactive Weather Map New forecast layout! Learn more

10-Day Weather Forecast

Advertisements
Track Severe Weather on mobile